createdAt,value
2023-07-29T00:00:27.795Z,14.08
2023-07-29T00:01:27.795Z,14.12
2023-07-29T00:02:27.804Z,14.28
2023-07-29T00:03:27.844Z,14.36
2023-07-29T00:04:27.837Z,14.45
2023-07-29T00:05:27.798Z,14.50
2023-07-29T00:06:27.709Z,14.51
2023-07-29T00:07:27.731Z,14.59
2023-07-29T00:08:27.663Z,14.69
2023-07-29T00:09:27.663Z,14.76
2023-07-29T00:10:27.660Z,14.78
2023-07-29T00:11:27.678Z,14.77
2023-07-29T00:12:27.627Z,14.85
2023-07-29T00:13:27.638Z,14.82
2023-07-29T00:14:27.675Z,14.87
2023-07-29T00:15:27.570Z,14.89
2023-07-29T00:16:27.678Z,14.90
2023-07-29T00:17:27.622Z,14.88
2023-07-29T00:18:27.563Z,14.95
2023-07-29T00:19:27.598Z,14.93
2023-07-29T00:20:27.508Z,14.94
2023-07-29T00:21:27.502Z,14.98
2023-07-29T00:22:27.521Z,14.94
2023-07-29T00:23:27.515Z,14.93
2023-07-29T00:24:27.464Z,14.95
2023-07-29T00:25:27.456Z,14.99
2023-07-29T00:26:27.442Z,15.01
2023-07-29T00:27:27.411Z,15.04
2023-07-29T00:28:27.455Z,15.05
2023-07-29T00:29:27.508Z,15.10
2023-07-29T00:30:27.394Z,15.21
2023-07-29T00:31:27.519Z,15.28
2023-07-29T00:32:27.403Z,15.41
2023-07-29T00:33:27.375Z,15.43
2023-07-29T00:34:27.360Z,15.48
2023-07-29T00:35:27.383Z,15.50
2023-07-29T00:36:27.359Z,15.62
2023-07-29T00:37:27.317Z,15.68
2023-07-29T00:38:27.288Z,15.75
2023-07-29T00:39:27.320Z,15.75
2023-07-29T00:40:27.257Z,15.77
2023-07-29T00:41:27.388Z,15.88
2023-07-29T00:42:27.243Z,15.81
2023-07-29T00:43:27.210Z,15.87
2023-07-29T00:44:27.203Z,15.85
2023-07-29T00:45:27.212Z,15.86
2023-07-29T00:46:27.264Z,15.81
2023-07-29T00:47:27.282Z,15.80
2023-07-29T00:48:27.563Z,15.82
2023-07-29T00:49:27.139Z,15.92
2023-07-29T00:50:27.144Z,15.93
2023-07-29T00:51:27.117Z,15.97
2023-07-29T00:52:27.151Z,15.90
2023-07-29T00:53:27.161Z,15.93
2023-07-29T00:54:27.132Z,16.02
2023-07-29T00:55:27.107Z,16.02
2023-07-29T00:56:27.064Z,16.13
2023-07-29T00:57:27.040Z,16.22
2023-07-29T00:58:27.033Z,16.20
2023-07-29T00:59:27.045Z,16.26
2023-07-29T01:00:27.050Z,16.29
2023-07-29T01:01:27.120Z,16.34
2023-07-29T01:02:27.052Z,16.25
2023-07-29T01:03:27.095Z,16.23
2023-07-29T01:04:26.967Z,16.25
2023-07-29T01:05:27.016Z,16.20
2023-07-29T01:06:26.951Z,16.20
2023-07-29T01:07:26.940Z,16.20
2023-07-29T01:08:26.896Z,16.12
2023-07-29T01:09:26.900Z,16.14
2023-07-29T01:10:26.876Z,16.13
2023-07-29T01:11:26.886Z,16.10
2023-07-29T01:12:26.847Z,16.08
2023-07-29T01:13:26.863Z,16.14
2023-07-29T01:14:26.881Z,16.17
2023-07-29T01:15:26.803Z,16.24
2023-07-29T01:16:26.915Z,16.26
2023-07-29T01:17:26.829Z,16.23
2023-07-29T01:18:26.759Z,16.24
2023-07-29T01:19:26.807Z,16.33
2023-07-29T01:20:26.748Z,16.50
2023-07-29T01:21:26.721Z,16.57
2023-07-29T01:22:26.748Z,16.67
2023-07-29T01:23:26.769Z,16.65
2023-07-29T01:24:26.692Z,16.67
2023-07-29T01:25:26.679Z,16.70
2023-07-29T01:26:26.662Z,16.76
2023-07-29T01:27:26.658Z,16.83
2023-07-29T01:28:26.686Z,16.84
2023-07-29T01:29:26.666Z,16.96
2023-07-29T01:30:26.606Z,17.03
2023-07-29T01:31:26.651Z,17.06
2023-07-29T01:32:26.601Z,17.04
2023-07-29T01:33:26.571Z,17.14
2023-07-29T01:34:26.562Z,17.14
2023-07-29T01:35:26.599Z,17.13
2023-07-29T01:36:26.530Z,17.17
2023-07-29T01:37:26.522Z,17.23
2023-07-29T01:38:26.517Z,17.27
2023-07-29T01:39:26.488Z,17.34
2023-07-29T01:40:26.482Z,17.48
2023-07-29T01:41:26.548Z,17.54
2023-07-29T01:42:28.333Z,17.56
2023-07-29T01:43:26.444Z,17.67
2023-07-29T01:44:26.450Z,17.81
2023-07-29T01:45:26.445Z,17.96
2023-07-29T01:46:26.431Z,18.16
2023-07-29T01:47:26.493Z,18.23
2023-07-29T01:48:26.394Z,18.35
2023-07-29T01:49:26.376Z,18.47
2023-07-29T01:50:26.374Z,18.57
2023-07-29T01:51:26.331Z,18.68
2023-07-29T01:52:26.385Z,18.81
2023-07-29T01:53:26.386Z,18.80
2023-07-29T01:54:26.334Z,18.93
2023-07-29T01:55:26.364Z,19.03
2023-07-29T01:56:26.293Z,19.14
2023-07-29T01:57:26.333Z,19.12
2023-07-29T01:58:26.266Z,19.32
2023-07-29T01:59:26.275Z,19.44
2023-07-29T02:00:26.296Z,19.46
2023-07-29T02:01:26.246Z,19.57
2023-07-29T02:02:26.255Z,19.53
2023-07-29T02:03:26.194Z,19.62
2023-07-29T02:04:26.212Z,19.60
2023-07-29T02:05:26.217Z,19.48
2023-07-29T02:06:26.168Z,19.37
2023-07-29T02:07:26.191Z,19.35
2023-07-29T02:08:26.135Z,19.23
2023-07-29T02:09:26.151Z,19.17
2023-07-29T02:10:26.125Z,19.14
2023-07-29T02:11:26.182Z,19.12
2023-07-29T02:12:26.095Z,19.14
2023-07-29T02:13:27.072Z,19.09
2023-07-29T02:14:26.056Z,19.16
2023-07-29T02:15:26.040Z,19.16
2023-07-29T02:16:26.161Z,19.23
2023-07-29T02:17:26.078Z,19.23
2023-07-29T02:18:26.005Z,19.32
2023-07-29T02:19:26.001Z,19.42
2023-07-29T02:20:25.981Z,19.41
2023-07-29T02:21:25.970Z,19.39
2023-07-29T02:22:25.956Z,19.35
2023-07-29T02:23:25.975Z,19.42
2023-07-29T02:24:25.940Z,19.46
2023-07-29T02:25:25.916Z,19.37
2023-07-29T02:26:25.911Z,19.46
2023-07-29T02:27:25.910Z,19.50
2023-07-29T02:28:25.909Z,19.41
2023-07-29T02:29:25.897Z,19.46
2023-07-29T02:30:25.858Z,19.50
2023-07-29T02:31:25.928Z,19.57
2023-07-29T02:32:25.861Z,19.73
2023-07-29T02:33:25.885Z,19.79
2023-07-29T02:34:25.799Z,19.94
2023-07-29T02:35:25.816Z,19.98
2023-07-29T02:36:25.795Z,20.09
2023-07-29T02:37:25.791Z,20.17
2023-07-29T02:38:25.748Z,20.25
2023-07-29T02:39:25.763Z,20.28
2023-07-29T02:40:25.734Z,20.32
2023-07-29T02:41:25.756Z,20.30
2023-07-29T02:42:25.711Z,20.40
2023-07-29T02:43:25.693Z,20.34
2023-07-29T02:44:25.679Z,20.28
2023-07-29T02:45:25.650Z,20.30
2023-07-29T02:46:25.699Z,20.28
2023-07-29T02:47:25.722Z,20.30
2023-07-29T02:48:25.621Z,20.32
2023-07-29T02:49:25.624Z,20.23
2023-07-29T02:50:25.622Z,20.28
2023-07-29T02:51:25.575Z,20.25
2023-07-29T02:52:25.572Z,20.11
2023-07-29T02:53:25.636Z,20.07
2023-07-29T02:54:25.533Z,20.07
2023-07-29T02:55:25.523Z,20.00
2023-07-29T02:56:25.529Z,19.90
2023-07-29T02:57:25.521Z,19.94
2023-07-29T02:58:25.516Z,19.94
2023-07-29T02:59:25.533Z,19.98
2023-07-29T03:00:25.477Z,20.05
2023-07-29T03:01:25.469Z,20.01
2023-07-29T03:02:25.541Z,20.03
2023-07-29T03:03:25.548Z,20.13
2023-07-29T03:04:25.427Z,20.25
2023-07-29T03:05:25.457Z,20.32
2023-07-29T03:06:25.381Z,20.44
2023-07-29T03:07:25.385Z,20.52
2023-07-29T03:08:25.391Z,20.52
2023-07-29T03:09:25.384Z,20.60
2023-07-29T03:10:25.359Z,20.42
2023-07-29T03:11:25.364Z,20.34
2023-07-29T03:12:25.394Z,20.17
2023-07-29T03:13:25.321Z,20.00
2023-07-29T03:14:25.305Z,19.92
2023-07-29T03:15:25.278Z,19.66
2023-07-29T03:16:25.356Z,19.62
2023-07-29T03:17:25.382Z,19.42
2023-07-29T03:18:25.246Z,19.35
2023-07-29T03:19:25.251Z,19.35
2023-07-29T03:20:25.249Z,19.35
2023-07-29T03:21:25.282Z,19.42
2023-07-29T03:22:25.218Z,19.46
2023-07-29T03:23:25.224Z,19.46
2023-07-29T03:24:25.173Z,19.35
2023-07-29T03:25:25.153Z,19.37
2023-07-29T03:26:25.149Z,19.33
2023-07-29T03:27:25.121Z,19.44
2023-07-29T03:28:25.153Z,19.44
2023-07-29T03:29:25.172Z,19.48
2023-07-29T03:30:25.088Z,19.39
2023-07-29T03:31:25.066Z,19.58
2023-07-29T03:32:25.167Z,19.51
2023-07-29T03:33:25.075Z,19.53
2023-07-29T03:34:25.040Z,19.60
2023-07-29T03:35:25.038Z,19.60
2023-07-29T03:36:25.001Z,19.75
2023-07-29T03:37:25.014Z,19.69
2023-07-29T03:38:24.996Z,19.57
2023-07-29T03:39:24.986Z,19.57
2023-07-29T03:40:24.964Z,19.48
2023-07-29T03:41:25.042Z,19.51
2023-07-29T03:42:25.002Z,19.57
2023-07-29T03:43:24.942Z,19.51
2023-07-29T03:44:24.915Z,19.44
2023-07-29T03:45:24.899Z,19.48
2023-07-29T03:46:24.955Z,19.48
2023-07-29T03:47:24.945Z,19.50
2023-07-29T03:48:24.863Z,19.55
2023-07-29T03:49:24.837Z,19.68
2023-07-29T03:50:24.833Z,19.77
2023-07-29T03:51:24.843Z,19.86
2023-07-29T03:52:24.833Z,19.92
2023-07-29T03:53:24.852Z,20.05
2023-07-29T03:54:24.774Z,19.98
2023-07-29T03:55:24.765Z,19.98
2023-07-29T03:56:24.766Z,20.00
2023-07-29T03:57:24.720Z,19.90
2023-07-29T03:58:24.737Z,19.83
2023-07-29T03:59:24.743Z,19.71
2023-07-29T04:00:24.684Z,19.53
2023-07-29T04:01:24.710Z,19.37
2023-07-29T04:02:24.703Z,19.19
2023-07-29T04:03:24.676Z,19.05
2023-07-29T04:04:24.780Z,18.95
2023-07-29T04:05:24.666Z,18.90
2023-07-29T04:06:24.623Z,18.78
2023-07-29T04:07:24.611Z,18.55
2023-07-29T04:08:24.595Z,18.66
2023-07-29T04:09:24.582Z,18.66
2023-07-29T04:10:24.562Z,18.61
2023-07-29T04:11:24.595Z,18.60
2023-07-29T04:12:24.533Z,18.51
2023-07-29T04:13:24.534Z,18.50
2023-07-29T04:14:24.510Z,18.47
2023-07-29T04:15:24.500Z,18.42
2023-07-29T04:16:24.558Z,18.40
2023-07-29T04:17:24.525Z,18.43
2023-07-29T04:18:24.544Z,18.53
2023-07-29T04:19:24.470Z,18.57
2023-07-29T04:20:24.510Z,18.60
2023-07-29T04:21:24.476Z,18.60
2023-07-29T04:22:24.429Z,18.71
2023-07-29T04:23:24.452Z,18.63
2023-07-29T04:24:24.392Z,18.68
2023-07-29T04:25:24.395Z,18.66
2023-07-29T04:26:24.348Z,18.70
2023-07-29T04:27:24.357Z,18.63
2023-07-29T04:28:24.458Z,18.68
2023-07-29T04:29:24.417Z,18.70
2023-07-29T04:30:24.330Z,18.68
2023-07-29T04:31:24.326Z,18.58
2023-07-29T04:32:24.310Z,18.45
2023-07-29T04:33:24.287Z,18.37
2023-07-29T04:34:24.310Z,18.43
2023-07-29T04:35:24.306Z,18.57
2023-07-29T04:36:24.244Z,18.58
2023-07-29T04:37:24.216Z,18.63
2023-07-29T04:38:24.192Z,18.66
2023-07-29T04:39:24.227Z,18.73
2023-07-29T04:40:24.221Z,18.76
2023-07-29T04:41:24.222Z,18.76
2023-07-29T04:42:24.178Z,18.76
2023-07-29T04:43:24.167Z,18.97
2023-07-29T04:44:24.112Z,19.00
2023-07-29T04:45:24.153Z,18.98
2023-07-29T04:46:24.099Z,19.09
2023-07-29T04:47:25.087Z,19.07
2023-07-29T04:48:24.067Z,19.21
2023-07-29T04:49:24.092Z,19.35
2023-07-29T04:50:24.047Z,19.51
2023-07-29T04:51:24.032Z,19.64
2023-07-29T04:52:24.033Z,19.64
2023-07-29T04:53:24.038Z,19.73
2023-07-29T04:54:24.007Z,19.64
2023-07-29T04:55:23.992Z,19.62
2023-07-29T04:56:23.962Z,19.64
2023-07-29T04:57:23.971Z,19.69
2023-07-29T04:58:23.953Z,19.79
2023-07-29T04:59:23.971Z,19.83
2023-07-29T05:00:23.913Z,19.94
2023-07-29T05:01:23.967Z,20.09
2023-07-29T05:02:23.953Z,20.13
2023-07-29T05:03:23.902Z,20.17
2023-07-29T05:04:23.902Z,20.17
2023-07-29T05:05:23.927Z,20.17
2023-07-29T05:06:23.842Z,20.17
2023-07-29T05:07:23.812Z,20.15
2023-07-29T05:08:23.837Z,20.30
2023-07-29T05:09:23.813Z,20.34
2023-07-29T05:10:23.778Z,20.52
2023-07-29T05:11:23.794Z,20.54
2023-07-29T05:12:23.766Z,20.73
2023-07-29T05:13:23.752Z,20.68
2023-07-29T05:14:23.727Z,20.68
2023-07-29T05:15:23.749Z,20.73
2023-07-29T05:16:23.697Z,20.87
2023-07-29T05:17:23.785Z,20.91
2023-07-29T05:18:23.677Z,21.01
2023-07-29T05:19:23.718Z,21.04
2023-07-29T05:20:23.687Z,21.10
2023-07-29T05:21:23.672Z,21.14
2023-07-29T05:22:23.684Z,21.08
2023-07-29T05:23:23.699Z,21.18
2023-07-29T05:24:23.640Z,21.16
2023-07-29T05:25:23.645Z,21.14
2023-07-29T05:26:23.670Z,21.12
2023-07-29T05:27:23.570Z,21.06
2023-07-29T05:28:23.601Z,21.18
2023-07-29T05:29:23.637Z,21.16
2023-07-29T05:30:23.737Z,21.01
2023-07-29T05:31:23.568Z,20.97
2023-07-29T05:32:23.518Z,20.97
2023-07-29T05:33:23.654Z,20.95
2023-07-29T05:34:23.580Z,20.99
2023-07-29T05:35:23.506Z,20.89
2023-07-29T05:36:23.531Z,20.81
2023-07-29T05:37:23.549Z,20.77
2023-07-29T05:38:23.519Z,20.66
2023-07-29T05:39:23.455Z,20.70
2023-07-29T05:40:23.412Z,20.62
2023-07-29T05:41:23.454Z,20.68
2023-07-29T05:42:23.378Z,20.56
2023-07-29T05:43:23.391Z,20.62
2023-07-29T05:44:23.373Z,20.56
2023-07-29T05:45:23.386Z,20.52
2023-07-29T05:46:23.370Z,20.48
2023-07-29T05:47:23.366Z,20.48
2023-07-29T05:48:23.302Z,20.40
2023-07-29T05:49:23.377Z,20.42
2023-07-29T05:50:23.314Z,20.36
2023-07-29T05:51:23.283Z,20.38
2023-07-29T05:52:23.282Z,20.17
2023-07-29T05:53:23.287Z,20.21
2023-07-29T05:54:23.208Z,20.03
2023-07-29T05:55:23.257Z,19.86
2023-07-29T05:56:23.235Z,19.71
2023-07-29T05:57:23.213Z,19.42
2023-07-29T05:58:23.178Z,19.16
2023-07-29T05:59:23.218Z,18.98
2023-07-29T06:00:23.155Z,18.85
2023-07-29T06:01:23.289Z,18.71
2023-07-29T06:02:23.121Z,18.57
2023-07-29T06:03:23.236Z,18.57
2023-07-29T06:04:23.159Z,18.47
2023-07-29T06:05:23.122Z,18.42
2023-07-29T06:06:23.089Z,18.35
2023-07-29T06:07:23.053Z,18.40
2023-07-29T06:08:23.033Z,18.47
2023-07-29T06:09:23.086Z,18.47
2023-07-29T06:10:23.081Z,18.51
2023-07-29T06:11:23.130Z,18.50
2023-07-29T06:12:23.057Z,18.42
2023-07-29T06:13:23.146Z,18.37
2023-07-29T06:14:23.000Z,18.32
2023-07-29T06:15:23.220Z,18.21
2023-07-29T06:16:23.004Z,18.08
2023-07-29T06:17:23.076Z,18.16
2023-07-29T06:18:22.932Z,18.27
2023-07-29T06:19:22.939Z,18.32
2023-07-29T06:20:22.952Z,18.18
2023-07-29T06:21:22.891Z,18.21
2023-07-29T06:22:22.904Z,18.19
2023-07-29T06:23:22.899Z,18.40
2023-07-29T06:24:22.824Z,18.37
2023-07-29T06:25:22.908Z,18.48
2023-07-29T06:26:22.838Z,18.68
2023-07-29T06:27:22.803Z,18.65
2023-07-29T06:28:22.824Z,18.71
2023-07-29T06:29:22.839Z,18.73
2023-07-29T06:30:22.821Z,18.76
2023-07-29T06:31:22.793Z,18.75
2023-07-29T06:32:22.768Z,18.86
2023-07-29T06:33:22.740Z,19.23
2023-07-29T06:34:25.090Z,19.55
2023-07-29T06:35:22.819Z,20.44
2023-07-29T06:36:22.698Z,22.40
2023-07-29T06:37:22.756Z,23.74
2023-07-29T06:38:22.696Z,28.07
2023-07-29T06:39:22.765Z,34.12
2023-07-29T06:40:22.685Z,40.07
2023-07-29T06:41:22.718Z,43.60
2023-07-29T06:42:22.662Z,45.88
2023-07-29T06:43:22.721Z,47.89
2023-07-29T06:44:22.618Z,50.72
2023-07-29T06:45:22.649Z,52.04
2023-07-29T06:46:22.588Z,54.40
2023-07-29T06:47:22.676Z,58.78
2023-07-29T06:48:22.606Z,63.48
2023-07-29T06:49:22.632Z,66.60
2023-07-29T06:50:22.579Z,69.34
2023-07-29T06:51:22.507Z,76.33
2023-07-29T06:52:22.512Z,79.81
2023-07-29T06:53:22.533Z,85.58
2023-07-29T06:54:22.560Z,85.58
2023-07-29T06:55:22.513Z,82.47
2023-07-29T06:56:22.501Z,79.36
2023-07-29T06:57:22.480Z,77.60
2023-07-29T06:58:22.522Z,77.03
2023-07-29T06:59:22.508Z,80.73
2023-07-29T07:00:22.416Z,84.81
2023-07-29T07:01:22.399Z,91.95
2023-07-29T07:02:22.455Z,95.91
2023-07-29T07:03:22.438Z,95.42
2023-07-29T07:04:22.381Z,97.18
2023-07-29T07:05:22.380Z,101.16
2023-07-29T07:06:22.347Z,109.10
2023-07-29T07:07:22.353Z,113.83
2023-07-29T07:08:22.342Z,118.73
2023-07-29T07:09:22.393Z,127.46
2023-07-29T07:10:22.249Z,129.73
2023-07-29T07:11:22.339Z,132.07
2023-07-29T07:12:22.234Z,135.26
2023-07-29T07:13:22.229Z,144.81
2023-07-29T07:14:22.232Z,154.67
2023-07-29T07:15:22.233Z,158.01
2023-07-29T07:16:22.272Z,168.12
2023-07-29T07:17:22.395Z,185.16
2023-07-29T07:18:22.158Z,189.05
2023-07-29T07:19:22.190Z,187.45
2023-07-29T07:20:22.211Z,194.28
2023-07-29T07:21:22.136Z,205.51
2023-07-29T07:22:22.120Z,214.86
2023-07-29T07:23:22.132Z,221.33
2023-07-29T07:24:22.080Z,215.14
2023-07-29T07:25:22.116Z,208.89
2023-07-29T07:26:22.061Z,207.57
2023-07-29T07:27:22.108Z,202.24
2023-07-29T07:28:22.084Z,198.00
2023-07-29T07:29:22.117Z,198.00
2023-07-29T07:30:22.036Z,200.89
2023-07-29T07:31:22.075Z,203.11
2023-07-29T07:32:22.046Z,209.02
2023-07-29T07:33:22.128Z,209.41
2023-07-29T07:34:21.968Z,204.62
2023-07-29T07:35:22.014Z,201.01
2023-07-29T07:36:22.160Z,195.31
2023-07-29T07:37:21.951Z,185.35
2023-07-29T07:38:21.942Z,175.31
2023-07-29T07:39:22.735Z,180.01
2023-07-29T07:40:21.918Z,190.80
2023-07-29T07:41:21.993Z,189.71
2023-07-29T07:42:21.893Z,180.01
2023-07-29T07:43:21.858Z,169.31
2023-07-29T07:44:21.849Z,161.66
2023-07-29T07:45:21.826Z,161.35
2023-07-29T07:46:21.842Z,162.60
2023-07-29T07:47:21.952Z,169.14
2023-07-29T07:48:21.830Z,169.65
2023-07-29T07:49:21.817Z,171.03
2023-07-29T07:50:21.784Z,167.96
2023-07-29T07:51:21.749Z,165.80
2023-07-29T07:52:21.769Z,170.51
2023-07-29T07:53:21.792Z,181.36
2023-07-29T07:54:21.733Z,189.16
2023-07-29T07:55:21.703Z,189.49
2023-07-29T07:56:21.697Z,185.76
2023-07-29T07:57:21.692Z,180.39
2023-07-29T07:58:21.748Z,181.36
2023-07-29T07:59:21.708Z,192.47
2023-07-29T08:00:21.684Z,201.50
2023-07-29T08:01:21.700Z,214.02
2023-07-29T08:02:21.729Z,225.41
2023-07-29T08:03:21.649Z,240.85
2023-07-29T08:04:21.608Z,253.21
2023-07-29T08:05:21.625Z,261.42
2023-07-29T08:06:21.599Z,261.42
2023-07-29T08:07:21.609Z,252.43
2023-07-29T08:08:21.557Z,248.26
2023-07-29T08:09:21.546Z,251.28
2023-07-29T08:10:21.540Z,259.16
2023-07-29T08:11:21.569Z,268.64
2023-07-29T08:12:21.638Z,277.43
2023-07-29T08:13:21.531Z,289.84
2023-07-29T08:14:21.502Z,305.93
2023-07-29T08:15:21.489Z,308.79
2023-07-29T08:16:21.535Z,308.79
2023-07-29T08:17:21.544Z,296.60
2023-07-29T08:18:21.452Z,297.93
2023-07-29T08:19:22.865Z,299.01
2023-07-29T08:20:21.439Z,304.24
2023-07-29T08:21:21.455Z,309.95
2023-07-29T08:22:21.406Z,311.41
2023-07-29T08:23:21.441Z,310.82
2023-07-29T08:24:21.397Z,308.21
2023-07-29T08:25:21.373Z,309.95
2023-07-29T08:26:21.373Z,311.11
2023-07-29T08:27:21.362Z,325.51
2023-07-29T08:28:21.404Z,330.06
2023-07-29T08:29:21.374Z,319.53
2023-07-29T08:30:21.392Z,313.77
2023-07-29T08:31:21.321Z,325.19
2023-07-29T08:32:21.305Z,352.22
2023-07-29T08:33:21.306Z,379.14
2023-07-29T08:34:21.410Z,390.37
2023-07-29T08:35:21.322Z,403.02
2023-07-29T08:36:21.276Z,421.74
2023-07-29T08:37:21.255Z,432.60
2023-07-29T08:38:21.239Z,447.29
2023-07-29T08:39:21.274Z,453.63
2023-07-29T08:40:21.246Z,463.33
2023-07-29T08:41:21.251Z,491.82
2023-07-29T08:42:21.238Z,488.96
2023-07-29T08:43:21.183Z,505.13
2023-07-29T08:44:21.184Z,505.89
2023-07-29T08:45:21.197Z,508.19
2023-07-29T08:46:21.222Z,507.42
2023-07-29T08:47:21.212Z,516.00
2023-07-29T08:48:21.157Z,511.67
2023-07-29T08:49:21.161Z,511.28
2023-07-29T08:50:21.131Z,502.86
2023-07-29T08:51:21.112Z,511.28
2023-07-29T08:52:21.108Z,534.04
2023-07-29T08:53:21.134Z,558.00
2023-07-29T08:54:21.115Z,567.90
2023-07-29T08:55:21.067Z,572.26
2023-07-29T08:56:21.066Z,570.31
2023-07-29T08:57:21.068Z,543.55
2023-07-29T08:58:21.051Z,546.20
2023-07-29T08:59:21.075Z,562.20
2023-07-29T09:00:21.687Z,580.16
2023-07-29T09:01:21.071Z,589.84
2023-07-29T09:02:21.071Z,606.34
2023-07-29T09:03:21.171Z,620.91
2023-07-29T09:04:21.001Z,611.31
2023-07-29T09:05:21.041Z,619.77
2023-07-29T09:06:21.001Z,599.31
2023-07-29T09:07:20.993Z,566.94
2023-07-29T09:08:20.968Z,553.40
2023-07-29T09:09:20.939Z,563.61
2023-07-29T09:10:20.946Z,548.88
2023-07-29T09:11:20.955Z,535.75
2023-07-29T09:12:20.951Z,519.19
2023-07-29T09:13:20.906Z,502.86
2023-07-29T09:14:20.891Z,492.54
2023-07-29T09:15:20.926Z,496.91
2023-07-29T09:16:21.021Z,498.02
2023-07-29T09:17:20.888Z,492.18
2023-07-29T09:18:20.890Z,487.54
2023-07-29T09:19:20.851Z,509.35
2023-07-29T09:20:20.885Z,518.39
2023-07-29T09:21:20.839Z,520.39
2023-07-29T09:22:20.825Z,512.45
2023-07-29T09:23:20.840Z,510.12
2023-07-29T09:24:20.817Z,516.79
2023-07-29T09:25:20.774Z,534.90
2023-07-29T09:26:20.784Z,550.23
2023-07-29T09:27:20.798Z,558.00
2023-07-29T09:28:20.816Z,570.31
2023-07-29T09:29:20.798Z,579.16
2023-07-29T09:30:20.771Z,559.39
2023-07-29T09:31:20.927Z,527.75
2023-07-29T09:32:20.734Z,482.64
2023-07-29T09:33:20.722Z,461.10
2023-07-29T09:34:20.708Z,456.71
2023-07-29T09:35:20.815Z,477.15
2023-07-29T09:36:20.673Z,491.46
2023-07-29T09:37:20.668Z,506.27
2023-07-29T09:38:20.661Z,524.05
2023-07-29T09:39:20.644Z,529.00
2023-07-29T09:40:20.744Z,505.51
2023-07-29T09:41:20.700Z,518.79
2023-07-29T09:42:20.629Z,541.80
2023-07-29T09:43:20.613Z,537.89
2023-07-29T09:44:20.597Z,533.62
2023-07-29T09:45:20.586Z,526.51
2023-07-29T09:46:20.619Z,506.66
2023-07-29T09:47:20.694Z,522.82
2023-07-29T09:48:20.564Z,548.43
2023-07-29T09:49:20.582Z,563.61
2023-07-29T09:50:20.676Z,595.06
2023-07-29T09:51:20.562Z,585.22
2023-07-29T09:52:20.540Z,587.78
2023-07-29T09:53:20.537Z,590.36
2023-07-29T09:54:20.509Z,546.65
2023-07-29T09:55:20.552Z,546.20
2023-07-29T09:56:20.484Z,571.28
2023-07-29T09:57:20.512Z,596.65
2023-07-29T09:58:20.509Z,614.66
2023-07-29T09:59:20.500Z,604.71
2023-07-29T10:00:20.440Z,592.96
2023-07-29T10:01:20.554Z,613.54
2023-07-29T10:02:20.425Z,639.84
2023-07-29T10:03:20.555Z,644.13
2023-07-29T10:04:20.449Z,660.60
2023-07-29T10:05:20.433Z,645.99
2023-07-29T10:06:20.399Z,634.40
2023-07-29T10:07:20.393Z,652.89
2023-07-29T10:08:20.382Z,696.20
2023-07-29T10:09:20.552Z,694.04
2023-07-29T10:10:20.418Z,689.76
2023-07-29T10:11:20.392Z,681.37
2023-07-29T10:12:20.347Z,717.00
2023-07-29T10:13:20.352Z,710.18
2023-07-29T10:14:20.325Z,719.30
2023-07-29T10:15:20.303Z,707.19
2023-07-29T10:16:20.349Z,728.66
2023-07-29T10:17:20.322Z,720.07
2023-07-29T10:18:20.293Z,711.68
2023-07-29T10:19:20.356Z,723.17
2023-07-29T10:20:20.289Z,769.45
2023-07-29T10:21:20.279Z,787.93
2023-07-29T10:22:20.254Z,802.98
2023-07-29T10:23:20.276Z,774.32
2023-07-29T10:24:20.250Z,765.51
2023-07-29T10:25:20.234Z,772.99
2023-07-29T10:26:20.210Z,773.88
2023-07-29T10:27:20.253Z,749.72
2023-07-29T10:28:20.249Z,737.46
2023-07-29T10:29:20.319Z,733.44
2023-07-29T10:30:20.199Z,717.77
2023-07-29T10:31:20.198Z,711.68
2023-07-29T10:32:20.313Z,700.55
2023-07-29T10:33:20.205Z,696.92
2023-07-29T10:34:20.248Z,707.19
2023-07-29T10:35:20.213Z,731.84
2023-07-29T10:36:22.125Z,736.65
2023-07-29T10:37:20.153Z,756.47
2023-07-29T10:38:20.477Z,732.64
2023-07-29T10:39:20.441Z,725.52
2023-07-29T10:40:20.091Z,714.71
2023-07-29T10:41:20.127Z,696.20
2023-07-29T10:42:22.508Z,759.03
2023-07-29T10:43:20.072Z,764.20
2023-07-29T10:44:20.063Z,708.68
2023-07-29T10:45:20.072Z,742.35
2023-07-29T10:46:20.157Z,762.47
2023-07-29T10:47:20.205Z,782.43
2023-07-29T10:48:20.037Z,804.42
2023-07-29T10:49:20.021Z,804.42
2023-07-29T10:50:20.052Z,821.62
2023-07-29T10:51:20.027Z,814.66
2023-07-29T10:52:19.995Z,814.66
2023-07-29T10:53:20.057Z,813.67
2023-07-29T10:54:19.984Z,798.69
2023-07-29T10:55:19.996Z,775.66
2023-07-29T10:56:19.972Z,777.46
2023-07-29T10:57:19.954Z,777.01
2023-07-29T10:58:19.985Z,750.56
2023-07-29T10:59:20.035Z,738.27
2023-07-29T11:00:20.052Z,773.43
2023-07-29T11:01:21.030Z,797.27
2023-07-29T11:02:20.738Z,812.20
2023-07-29T11:03:19.954Z,842.73
2023-07-29T11:04:20.000Z,831.79
2023-07-29T11:05:19.941Z,840.62
2023-07-29T11:06:19.961Z,812.69
2023-07-29T11:07:19.907Z,791.18
2023-07-29T11:08:19.961Z,797.75
2023-07-29T11:09:19.900Z,798.69
2023-07-29T11:10:19.871Z,801.55
2023-07-29T11:11:19.915Z,795.39
2023-07-29T11:12:19.888Z,811.71
2023-07-29T11:13:19.853Z,816.14
2023-07-29T11:14:19.864Z,799.64
2023-07-29T11:15:20.136Z,788.39
2023-07-29T11:16:20.990Z,787.47
2023-07-29T11:17:21.045Z,785.17
2023-07-29T11:18:20.604Z,797.27
2023-07-29T11:19:19.847Z,793.04
2023-07-29T11:20:19.945Z,790.71
2023-07-29T11:21:21.759Z,786.55
2023-07-29T11:22:20.491Z,763.34
2023-07-29T11:23:20.510Z,753.92
2023-07-29T11:24:20.618Z,761.61
2023-07-29T11:25:20.479Z,771.22
2023-07-29T11:26:20.458Z,775.22
2023-07-29T11:27:20.472Z,751.82
2023-07-29T11:28:20.527Z,739.90
2023-07-29T11:29:20.568Z,728.66
2023-07-29T11:30:20.566Z,751.82
2023-07-29T11:31:20.514Z,768.57
2023-07-29T11:32:20.525Z,781.07
2023-07-29T11:33:22.284Z,777.01
2023-07-29T11:34:20.440Z,778.36
2023-07-29T11:35:20.508Z,781.07
2023-07-29T11:36:20.323Z,756.47
2023-07-29T11:37:20.384Z,750.56
2023-07-29T11:38:20.348Z,759.89
2023-07-29T11:39:19.663Z,729.46
2023-07-29T11:40:19.676Z,718.53
2023-07-29T11:41:19.700Z,712.44
2023-07-29T11:42:19.642Z,760.75
2023-07-29T11:43:19.641Z,807.81
2023-07-29T11:44:19.632Z,772.99
2023-07-29T11:45:19.638Z,720.07
2023-07-29T11:46:19.651Z,670.49
2023-07-29T11:47:19.706Z,648.48
2023-07-29T11:48:19.662Z,645.37
2023-07-29T11:49:19.571Z,645.37
2023-07-29T11:50:19.606Z,659.95
2023-07-29T11:51:19.586Z,683.45
2023-07-29T11:52:19.556Z,675.88
2023-07-29T11:53:19.575Z,663.21
2023-07-29T11:54:19.551Z,649.11
2023-07-29T11:55:19.601Z,635.00
2023-07-29T11:56:19.516Z,647.86
2023-07-29T11:57:19.552Z,662.55
2023-07-29T11:58:19.498Z,670.49
2023-07-29T11:59:19.517Z,669.82
2023-07-29T12:00:19.511Z,667.82
2023-07-29T12:01:19.499Z,665.18
2023-07-29T12:02:19.477Z,682.75
2023-07-29T12:03:19.634Z,686.94
2023-07-29T12:04:19.464Z,686.94
2023-07-29T12:05:19.467Z,675.20
2023-07-29T12:06:19.496Z,704.96
2023-07-29T12:07:19.421Z,738.27
2023-07-29T12:08:19.415Z,756.04
2023-07-29T12:09:19.433Z,773.43
2023-07-29T12:10:19.389Z,741.53
2023-07-29T12:11:20.114Z,734.24
2023-07-29T12:12:19.417Z,739.90
2023-07-29T12:13:19.385Z,766.38
2023-07-29T12:14:19.353Z,772.99
2023-07-29T12:15:19.347Z,775.66
2023-07-29T12:16:19.455Z,756.47
2023-07-29T12:17:19.542Z,765.95
2023-07-29T12:18:19.371Z,763.77
2023-07-29T12:19:19.306Z,760.75
2023-07-29T12:20:19.362Z,765.51
2023-07-29T12:21:19.314Z,789.78
2023-07-29T12:22:19.330Z,814.16
2023-07-29T12:23:19.338Z,810.24
2023-07-29T12:24:19.402Z,816.14
2023-07-29T12:25:19.250Z,772.99
2023-07-29T12:26:19.284Z,727.09
2023-07-29T12:27:19.284Z,699.82
2023-07-29T12:28:19.296Z,689.05
2023-07-29T12:29:19.258Z,693.32
2023-07-29T12:30:19.204Z,680.68
2023-07-29T12:31:19.266Z,649.74
2023-07-29T12:32:19.187Z,642.90
2023-07-29T12:33:19.166Z,620.91
2023-07-29T12:34:19.169Z,595.59
2023-07-29T12:35:19.233Z,569.83
2023-07-29T12:36:19.150Z,548.43
2023-07-29T12:37:19.138Z,529.41
2023-07-29T12:38:19.153Z,534.90
2023-07-29T12:39:19.105Z,527.75
2023-07-29T12:40:19.141Z,503.24
2023-07-29T12:41:19.116Z,517.59